EFTP/TMP METAR and TAF weather

Enter ICAO airport designator
Station Type Date Time Source
EFTP METAR 2019/12/06 13:50 UTC NOAA

EFTP 061350Z AUTO 20007KT 9000 OVC005 03/03 Q0983


Station Type Date Time Source
EFTP Decoded METAR 2019/12/06 13:50 UTC NOAA

Tampere / Pirkkala, Finland (EFTP) 61-25N 023-35E 112M
Dec 06, 2019 - 08:50 AM EST / 2019.12.06 1350 UTC
Wind: from the SSW (200 degrees) at 8 MPH (7 KT):0
Visibility: 5 mile(s):0
Sky conditions: overcast
Temperature: 37 F (3 C)
Dew Point: 37 F (3 C)
Relative Humidity: 100%
Pressure (altimeter): 29.03 in. Hg (0983 hPa)
ob: EFTP 061350Z AUTO 20007KT 9000 OVC005 03/03 Q0983
cycle: 14

Station Type Date Time Source
EFTP TAF 2019/12/06 12:42 UTC NOAA

TAF EFTP 061127Z 0612/0712 22006KT 9999 OVC007
TEMPO 0612/0619 1200 DZ BR BKN003 PROB30
TEMPO 0619/0621 2000 BR BKN015
TEMPO 0622/0709 BKN003 PROB40
TEMPO 0623/0709 0500 FG BKN001
TEMPO 0709/0712 4000 BR BKN004

Example: see airport list